createdAt,value
2019-05-18T00:00:44.767Z,5.20
2019-05-18T00:05:51.120Z,5.70
2019-05-18T00:08:39.505Z,4.50
2019-05-18T00:11:09.747Z,4.30
2019-05-18T00:13:40.139Z,4.20
2019-05-18T00:16:09.384Z,4.63
2019-05-18T00:18:37.749Z,4.03
2019-05-18T00:23:48.035Z,4.47
2019-05-18T00:28:52.635Z,4.97
2019-05-18T00:33:58.118Z,4.70
2019-05-18T00:36:29.957Z,4.73
2019-05-18T00:38:58.313Z,4.33
2019-05-18T00:41:45.436Z,4.70
2019-05-18T00:44:11.367Z,3.70
2019-05-18T00:46:40.355Z,3.57
2019-05-18T00:49:08.711Z,3.90
2019-05-18T00:54:29.663Z,5.20
2019-05-18T00:56:58.012Z,3.80
2019-05-18T00:59:26.366Z,3.90
2019-05-18T01:01:55.607Z,4.65
2019-05-18T01:04:28.822Z,4.90
2019-05-18T01:06:58.137Z,4.13
2019-05-18T01:12:57.532Z,5.27
2019-05-18T01:15:27.794Z,4.83
2019-05-18T01:17:59.959Z,3.73
2019-05-18T01:20:43.535Z,4.40
2019-05-18T01:23:12.775Z,4.60
2019-05-18T01:25:49.658Z,4.93
2019-05-18T01:28:18.006Z,4.60
2019-05-18T01:30:46.404Z,4.67
2019-05-18T01:33:15.001Z,5.00
2019-05-18T01:35:44.221Z,4.90
2019-05-18T01:38:12.564Z,4.77
2019-05-18T01:41:00.993Z,4.33
2019-05-18T01:43:29.321Z,5.27
2019-05-18T01:46:04.414Z,5.43
2019-05-18T01:48:37.529Z,5.43
2019-05-18T01:51:06.802Z,5.37
2019-05-18T01:56:12.383Z,5.50
2019-05-18T01:58:40.758Z,4.10
2019-05-18T02:01:11.013Z,4.43
2019-05-18T02:03:39.377Z,5.15
2019-05-18T02:06:07.741Z,5.62
2019-05-18T02:08:36.097Z,6.05
2019-05-18T02:11:04.464Z,5.28
2019-05-18T02:16:07.954Z,6.12
2019-05-18T02:18:36.317Z,4.43
2019-05-18T02:21:04.695Z,4.87
2019-05-18T02:23:33.053Z,5.20
2019-05-18T02:26:01.407Z,5.40
2019-05-18T02:30:49.929Z,5.85
2019-05-18T02:33:18.280Z,6.50
2019-05-18T02:35:46.644Z,5.40
2019-05-18T02:38:18.315Z,5.30
2019-05-18T02:40:46.703Z,4.70
2019-05-18T02:43:15.055Z,5.30
2019-05-18T02:48:19.581Z,7.90
2019-05-18T02:50:48.292Z,6.30
2019-05-18T02:53:16.649Z,7.32
2019-05-18T02:56:05.325Z,6.00
2019-05-18T02:58:57.144Z,5.20
2019-05-18T03:01:28.944Z,5.00
2019-05-18T03:06:34.497Z,7.20
2019-05-18T03:09:06.367Z,6.17
2019-05-18T03:11:35.624Z,5.50
2019-05-18T03:14:06.926Z,5.80
2019-05-18T03:16:39.648Z,7.20
2019-05-18T03:19:09.253Z,6.57
2019-05-18T03:21:37.275Z,7.80
2019-05-18T03:24:10.351Z,6.30
2019-05-18T03:26:38.701Z,6.43
2019-05-18T03:29:30.310Z,5.83
2019-05-18T03:31:58.671Z,6.03
2019-05-18T03:37:03.274Z,7.45
2019-05-18T03:39:31.601Z,6.27
2019-05-18T03:41:59.970Z,6.97
2019-05-18T03:44:28.351Z,7.00
2019-05-18T03:46:59.928Z,6.80
2019-05-18T03:52:02.462Z,6.72
2019-05-18T03:59:40.240Z,8.10
2019-05-18T04:02:08.618Z,7.33
2019-05-18T04:04:36.961Z,7.03
2019-05-18T04:07:06.046Z,6.50
2019-05-18T04:09:34.382Z,6.13
2019-05-18T04:12:02.751Z,5.93
2019-05-18T04:14:31.098Z,5.90
2019-05-18T04:16:59.490Z,6.23
2019-05-18T04:19:44.844Z,6.77
2019-05-18T04:21:56.177Z,5.90
2019-05-18T04:24:24.545Z,7.60
2019-05-18T04:26:52.891Z,5.70
2019-05-18T04:29:22.180Z,6.40
2019-05-18T04:31:50.530Z,6.17
2019-05-18T04:34:18.884Z,7.47
2019-05-18T04:36:48.213Z,7.83
2019-05-18T04:39:16.549Z,7.37
2019-05-18T04:41:48.629Z,6.50
2019-05-18T04:44:20.464Z,8.10
2019-05-18T04:46:48.845Z,6.67
2019-05-18T04:49:18.168Z,6.70
2019-05-18T04:51:46.527Z,7.13
2019-05-18T04:54:14.906Z,7.00
2019-05-18T04:56:44.356Z,7.67
2019-05-18T04:59:12.698Z,5.90
2019-05-18T05:01:42.002Z,6.97
2019-05-18T05:04:10.341Z,6.67
2019-05-18T05:06:39.612Z,6.70
2019-05-18T05:09:08.533Z,6.57
2019-05-18T05:11:41.873Z,6.47
2019-05-18T05:14:10.227Z,6.07
2019-05-18T05:16:38.567Z,6.53
2019-05-18T05:19:08.796Z,5.50
2019-05-18T05:21:35.550Z,5.93
2019-05-18T05:24:03.946Z,6.40
2019-05-18T05:26:32.380Z,5.90
2019-05-18T05:29:00.660Z,6.20
2019-05-18T05:31:29.001Z,6.40
2019-05-18T05:33:57.380Z,6.35
2019-05-18T05:36:25.731Z,7.00
2019-05-18T05:38:54.100Z,6.37
2019-05-18T05:41:22.463Z,7.10
2019-05-18T05:43:50.825Z,6.50
2019-05-18T05:46:19.163Z,6.50
2019-05-18T05:48:47.519Z,6.50
2019-05-18T05:51:15.885Z,6.80
2019-05-18T05:53:45.152Z,6.90
2019-05-18T05:56:13.610Z,5.78
2019-05-18T05:58:41.982Z,6.47
2019-05-18T06:01:10.325Z,6.07
2019-05-18T06:03:38.674Z,5.97
2019-05-18T06:08:41.218Z,6.17
2019-05-18T06:13:43.836Z,5.90
2019-05-18T06:16:12.167Z,6.00
2019-05-18T06:18:40.528Z,6.80
2019-05-18T06:21:08.889Z,6.20
2019-05-18T06:23:37.315Z,5.43
2019-05-18T06:26:05.590Z,6.12
2019-05-18T06:28:33.939Z,6.43
2019-05-18T06:31:02.285Z,6.00
2019-05-18T06:33:31.538Z,5.70
2019-05-18T06:35:59.879Z,4.97
2019-05-18T06:38:28.256Z,5.73
2019-05-18T06:41:00.222Z,5.68
2019-05-18T06:43:28.697Z,5.40
2019-05-18T06:46:00.285Z,5.00
2019-05-18T06:48:28.635Z,4.83
2019-05-18T06:51:06.698Z,5.30
2019-05-18T06:53:25.329Z,5.50
2019-05-18T06:55:53.681Z,4.83
2019-05-18T06:58:22.047Z,5.27
2019-05-18T07:03:24.684Z,6.00
2019-05-18T07:05:53.022Z,6.00
2019-05-18T07:08:21.370Z,5.18
2019-05-18T07:10:49.713Z,5.83
2019-05-18T07:13:21.469Z,5.30
2019-05-18T07:15:49.794Z,5.70
2019-05-18T07:18:19.073Z,6.33
2019-05-18T07:20:53.933Z,5.78
2019-05-18T07:23:22.381Z,5.97
2019-05-18T07:25:50.709Z,6.00
2019-05-18T07:28:19.061Z,6.37
2019-05-18T07:30:47.400Z,5.82
2019-05-18T07:33:15.761Z,6.33
2019-05-18T07:35:44.120Z,5.47
2019-05-18T07:38:15.472Z,6.07
2019-05-18T07:40:43.838Z,6.63
2019-05-18T07:43:15.178Z,5.07
2019-05-18T07:45:43.580Z,5.30
2019-05-18T07:50:48.152Z,6.27
2019-05-18T07:53:16.522Z,6.27
2019-05-18T07:55:44.872Z,5.90
2019-05-18T07:58:16.232Z,6.20
2019-05-18T08:00:44.630Z,5.70
2019-05-18T08:08:24.842Z,6.53
2019-05-18T08:10:53.191Z,5.77
2019-05-18T08:13:21.538Z,6.90
2019-05-18T08:15:49.896Z,7.30
2019-05-18T08:18:18.246Z,6.80
2019-05-18T08:20:46.588Z,6.80
2019-05-18T08:23:14.944Z,6.53
2019-05-18T08:25:43.302Z,6.50
2019-05-18T08:30:45.984Z,6.70
2019-05-18T08:33:14.507Z,7.23
2019-05-18T08:35:42.685Z,5.97
2019-05-18T08:38:11.036Z,6.47
2019-05-18T08:40:39.397Z,6.03
2019-05-18T08:43:07.758Z,5.83
2019-05-18T08:45:36.118Z,5.50
2019-05-18T08:48:04.467Z,6.07
2019-05-18T08:50:32.825Z,10.67
2019-05-18T08:53:03.077Z,6.37
2019-05-18T08:55:31.421Z,5.33
2019-05-18T08:57:59.768Z,6.93
2019-05-18T09:00:28.117Z,6.53
2019-05-18T09:02:56.463Z,5.70
2019-05-18T09:05:24.827Z,5.60
2019-05-18T09:07:53.173Z,5.70
2019-05-18T09:10:21.535Z,5.97
2019-05-18T09:15:26.170Z,5.15
2019-05-18T09:17:54.516Z,6.20
2019-05-18T09:20:22.875Z,5.37
2019-05-18T09:22:51.226Z,4.63
2019-05-18T09:25:19.586Z,4.43
2019-05-18T09:27:47.928Z,4.37
2019-05-18T09:30:16.297Z,4.87
2019-05-18T09:35:19.009Z,5.10
2019-05-18T09:37:47.346Z,5.03
2019-05-18T09:40:17.269Z,6.57
2019-05-18T09:42:45.619Z,5.17
2019-05-18T09:45:15.870Z,4.87
2019-05-18T09:47:44.233Z,6.33
2019-05-18T09:50:12.582Z,6.20
2019-05-18T09:52:45.713Z,6.30
2019-05-18T09:55:09.321Z,5.80
2019-05-18T10:00:14.080Z,6.12
2019-05-18T10:02:42.427Z,5.35
2019-05-18T10:05:10.788Z,5.37
2019-05-18T10:07:40.717Z,5.10
2019-05-18T10:12:47.330Z,5.40
2019-05-18T10:15:15.691Z,5.72
2019-05-18T10:17:44.061Z,5.80
2019-05-18T10:20:12.393Z,4.53
2019-05-18T10:22:53.502Z,5.07
2019-05-18T10:25:09.211Z,4.93
2019-05-18T10:30:11.936Z,5.30
2019-05-18T10:32:40.392Z,4.43
2019-05-18T10:35:08.707Z,4.70
2019-05-18T10:37:37.065Z,4.30
2019-05-18T10:42:41.763Z,4.68
2019-05-18T10:45:10.103Z,3.87
2019-05-18T10:47:38.460Z,4.70
2019-05-18T10:50:07.716Z,5.50
2019-05-18T10:52:36.202Z,4.93
2019-05-18T10:55:05.148Z,5.10
2019-05-18T10:57:33.521Z,5.13
2019-05-18T11:00:01.950Z,4.80
2019-05-18T11:02:30.234Z,4.90
2019-05-18T11:04:58.593Z,5.80
2019-05-18T11:07:29.083Z,6.10
2019-05-18T11:12:35.592Z,5.45
2019-05-18T11:15:04.181Z,6.37
2019-05-18T11:17:32.527Z,6.60
2019-05-18T11:20:01.949Z,6.75
2019-05-18T11:22:30.273Z,7.22
2019-05-18T11:24:58.761Z,6.50
2019-05-18T11:27:28.572Z,7.20
2019-05-18T11:29:56.913Z,7.00
2019-05-18T11:32:25.912Z,7.27
2019-05-18T11:34:55.075Z,7.10
2019-05-18T11:37:23.419Z,6.40
2019-05-18T11:42:26.144Z,6.25
2019-05-18T11:44:54.479Z,7.53
2019-05-18T11:47:23.249Z,7.73
2019-05-18T11:49:51.651Z,7.73
2019-05-18T11:52:19.985Z,6.27
2019-05-18T11:54:48.327Z,7.37
2019-05-18T11:57:16.685Z,8.17
2019-05-18T11:59:45.034Z,7.80
2019-05-18T12:02:14.083Z,7.90
2019-05-18T12:04:42.424Z,7.50
2019-05-18T12:07:10.783Z,7.00
2019-05-18T12:09:39.153Z,7.20
2019-05-18T12:12:07.533Z,7.67
2019-05-18T12:14:35.948Z,6.10
2019-05-18T12:19:46.523Z,6.50
2019-05-18T12:22:14.885Z,7.13
2019-05-18T12:24:43.233Z,6.77
2019-05-18T12:27:11.593Z,5.97
2019-05-18T12:29:43.581Z,7.80
2019-05-18T12:32:11.921Z,6.40
2019-05-18T12:37:21.382Z,6.90
2019-05-18T12:39:49.732Z,7.33
2019-05-18T12:42:18.090Z,7.50
2019-05-18T12:44:46.438Z,6.70
2019-05-18T12:47:14.797Z,6.33
2019-05-18T12:49:43.141Z,6.10
2019-05-18T12:52:11.505Z,5.97
2019-05-18T12:54:46.527Z,7.23
2019-05-18T12:57:08.212Z,5.67
2019-05-18T12:59:36.587Z,7.07
2019-05-18T13:02:04.928Z,6.70
2019-05-18T13:04:33.271Z,6.30
2019-05-18T13:07:01.623Z,4.93
2019-05-18T13:09:29.972Z,5.47
2019-05-18T13:11:59.353Z,5.70
2019-05-18T13:14:27.696Z,4.77
2019-05-18T13:16:56.075Z,4.40
2019-05-18T13:19:24.468Z,3.90
2019-05-18T13:21:52.788Z,5.10
2019-05-18T13:26:57.510Z,4.57
2019-05-18T13:29:25.852Z,4.63
2019-05-18T13:31:54.201Z,4.90
2019-05-18T13:34:22.544Z,4.50
2019-05-18T13:36:51.042Z,5.30
2019-05-18T13:41:53.709Z,3.90
2019-05-18T13:44:22.071Z,3.03
2019-05-18T13:46:50.420Z,2.70
2019-05-18T13:49:18.756Z,3.20
2019-05-18T13:51:47.179Z,2.70
2019-05-18T13:54:15.517Z,2.53
2019-05-18T13:56:43.870Z,2.47
2019-05-18T13:59:12.216Z,2.80
2019-05-18T14:01:40.575Z,2.40
2019-05-18T14:04:08.916Z,2.70
2019-05-18T14:06:37.274Z,2.40
2019-05-18T14:09:06.068Z,2.70
2019-05-18T14:11:34.409Z,2.40
2019-05-18T14:14:02.758Z,2.30
2019-05-18T14:16:31.113Z,2.80
2019-05-18T14:18:59.448Z,2.67
2019-05-18T14:24:02.058Z,2.78
2019-05-18T14:26:30.404Z,2.85
2019-05-18T14:28:58.748Z,2.60
2019-05-18T14:31:28.982Z,2.30
2019-05-18T14:33:57.338Z,2.50
2019-05-18T14:36:26.795Z,1.60
2019-05-18T14:38:56.883Z,1.50
2019-05-18T14:41:25.413Z,1.60
2019-05-18T14:43:53.746Z,2.90
2019-05-18T14:46:22.129Z,1.58
2019-05-18T14:48:50.470Z,1.60
2019-05-18T14:53:53.201Z,1.30
2019-05-18T14:56:21.554Z,1.30
2019-05-18T14:58:49.916Z,1.33
2019-05-18T15:01:18.267Z,1.55
2019-05-18T15:03:46.628Z,1.53
2019-05-18T15:06:14.976Z,1.60
2019-05-18T15:08:43.323Z,1.10
2019-05-18T15:11:11.660Z,1.40
2019-05-18T15:13:40.005Z,1.10
2019-05-18T15:16:08.362Z,1.20
2019-05-18T15:18:36.744Z,1.43
2019-05-18T15:21:05.093Z,1.13
2019-05-18T15:23:33.461Z,1.30
2019-05-18T15:26:01.815Z,1.53
2019-05-18T15:28:30.170Z,1.10
2019-05-18T15:30:58.528Z,1.10
2019-05-18T15:33:26.879Z,1.30
2019-05-18T15:35:55.230Z,1.20
2019-05-18T15:38:23.580Z,1.00
2019-05-18T15:40:51.938Z,0.93
2019-05-18T15:43:20.312Z,1.27
2019-05-18T15:48:25.094Z,1.20
2019-05-18T15:50:54.780Z,1.20
2019-05-18T15:53:23.214Z,1.43
2019-05-18T15:56:04.820Z,1.10
2019-05-18T15:58:19.940Z,0.93
2019-05-18T16:00:48.292Z,1.13
2019-05-18T16:03:16.629Z,1.60
2019-05-18T16:05:44.990Z,2.20
2019-05-18T16:10:48.669Z,2.00
2019-05-18T16:13:17.024Z,2.10
2019-05-18T16:15:45.389Z,1.30
2019-05-18T16:18:13.779Z,1.73
2019-05-18T16:20:42.111Z,1.30
2019-05-18T16:23:10.466Z,2.07
2019-05-18T16:25:38.836Z,1.70
2019-05-18T16:28:07.183Z,1.73
2019-05-18T16:33:09.838Z,2.30
2019-05-18T16:35:38.189Z,2.60
2019-05-18T16:38:07.430Z,2.63
2019-05-18T16:40:35.772Z,3.10
2019-05-18T16:43:05.030Z,2.60
2019-05-18T16:45:33.448Z,3.35
2019-05-18T16:48:01.804Z,2.80
2019-05-18T16:50:30.146Z,2.00
2019-05-18T16:52:58.522Z,1.83
2019-05-18T16:55:27.796Z,2.00
2019-05-18T16:57:56.160Z,2.80
2019-05-18T17:00:30.313Z,2.67
2019-05-18T17:02:58.648Z,3.60
2019-05-18T17:05:26.997Z,2.87
2019-05-18T17:07:55.353Z,2.33
2019-05-18T17:10:23.701Z,3.00
2019-05-18T17:12:52.068Z,2.20
2019-05-18T17:15:20.416Z,2.20
2019-05-18T17:17:48.761Z,6.00
2019-05-18T17:22:53.379Z,2.20
2019-05-18T17:25:21.713Z,11.20
2019-05-18T17:27:50.037Z,2.27
2019-05-18T17:30:18.380Z,3.00
2019-05-18T17:32:47.632Z,2.37
2019-05-18T17:35:15.973Z,2.20
2019-05-18T17:37:44.362Z,1.63
2019-05-18T17:40:12.714Z,3.12
2019-05-18T17:42:41.106Z,2.62
2019-05-18T17:45:09.426Z,2.80
2019-05-18T17:47:37.807Z,1.90
2019-05-18T17:52:40.401Z,1.50
2019-05-18T17:55:08.748Z,2.30
2019-05-18T17:57:37.095Z,2.27
2019-05-18T18:00:06.265Z,3.10
2019-05-18T18:02:34.598Z,2.10
2019-05-18T18:05:02.951Z,1.73
2019-05-18T18:07:31.635Z,1.80
2019-05-18T18:09:59.974Z,2.00
2019-05-18T18:12:28.308Z,2.20
2019-05-18T18:14:57.559Z,2.33
2019-05-18T18:17:26.568Z,2.57
2019-05-18T18:19:56.040Z,2.90
2019-05-18T18:22:24.390Z,2.67
2019-05-18T18:24:52.757Z,2.87
2019-05-18T18:27:25.144Z,2.40
2019-05-18T18:29:50.345Z,2.60
2019-05-18T18:32:18.676Z,2.43
2019-05-18T18:34:47.037Z,2.00
2019-05-18T18:37:15.369Z,2.20
2019-05-18T18:39:43.722Z,2.33
2019-05-18T18:42:12.093Z,2.23
2019-05-18T18:44:40.418Z,2.67
2019-05-18T18:47:08.775Z,2.40
2019-05-18T18:49:38.038Z,3.17
2019-05-18T18:52:06.366Z,2.50
2019-05-18T18:54:34.722Z,2.40
2019-05-18T18:59:38.237Z,2.50
2019-05-18T19:02:06.580Z,3.00
2019-05-18T19:04:34.979Z,2.50
2019-05-18T19:07:03.278Z,3.10
2019-05-18T19:09:35.327Z,3.30
2019-05-18T19:12:03.671Z,2.80
2019-05-18T19:14:32.017Z,2.83
2019-05-18T19:17:01.397Z,3.30
2019-05-18T19:19:30.018Z,3.13
2019-05-18T19:21:58.364Z,2.90
2019-05-18T19:24:26.722Z,3.70
2019-05-18T19:26:55.070Z,3.03
2019-05-18T19:29:23.408Z,3.07
2019-05-18T19:31:57.843Z,3.30
2019-05-18T19:34:26.452Z,3.97
2019-05-18T19:36:54.851Z,3.22
2019-05-18T19:39:23.195Z,3.20
2019-05-18T19:41:51.562Z,3.53
2019-05-18T19:44:19.891Z,3.12
2019-05-18T19:46:48.243Z,3.40
2019-05-18T19:49:16.591Z,2.50
2019-05-18T19:51:44.982Z,4.97
2019-05-18T19:54:13.325Z,4.90
2019-05-18T19:56:43.096Z,3.97
2019-05-18T19:59:10.107Z,4.73
2019-05-18T20:04:14.721Z,4.20
2019-05-18T20:06:43.302Z,3.97
2019-05-18T20:09:13.543Z,4.70
2019-05-18T20:11:41.932Z,4.97
2019-05-18T20:14:10.645Z,5.55
2019-05-18T20:19:13.249Z,4.70
2019-05-18T20:24:15.814Z,5.03
2019-05-18T20:26:44.172Z,5.30
2019-05-18T20:29:12.524Z,5.20
2019-05-18T20:31:41.401Z,4.10
2019-05-18T20:34:09.813Z,4.93
2019-05-18T20:36:38.598Z,4.93
2019-05-18T20:39:08.149Z,4.90
2019-05-18T20:41:36.491Z,5.13
2019-05-18T20:46:43.177Z,4.40
2019-05-18T20:49:11.516Z,5.10
2019-05-18T20:51:40.071Z,4.53
2019-05-18T20:54:08.417Z,5.30
2019-05-18T20:56:36.771Z,5.10
2019-05-18T20:59:05.116Z,4.83
2019-05-18T21:01:33.472Z,5.37
2019-05-18T21:04:01.886Z,4.73
2019-05-18T21:06:30.220Z,4.60
2019-05-18T21:08:58.567Z,5.10
2019-05-18T21:11:26.927Z,4.93
2019-05-18T21:13:57.784Z,5.70
2019-05-18T21:16:24.562Z,5.37
2019-05-18T21:18:52.928Z,5.20
2019-05-18T21:21:25.686Z,5.80
2019-05-18T21:23:51.541Z,5.67
2019-05-18T21:26:19.890Z,5.70
2019-05-18T21:28:59.673Z,5.87
2019-05-18T21:31:24.819Z,6.17
2019-05-18T21:34:01.170Z,5.25
2019-05-18T21:36:30.416Z,5.90
2019-05-18T21:41:32.948Z,5.90
2019-05-18T21:44:01.363Z,16.00
2019-05-18T21:49:04.004Z,11.70
2019-05-18T21:51:34.277Z,9.70
2019-05-18T21:54:02.651Z,9.00
2019-05-18T21:56:31.024Z,8.10
2019-05-18T22:01:34.576Z,6.43
2019-05-18T22:04:02.972Z,7.60
2019-05-18T22:06:31.339Z,6.87
2019-05-18T22:08:59.676Z,8.00
2019-05-18T22:11:28.022Z,7.32
2019-05-18T22:13:56.364Z,7.40
2019-05-18T22:16:25.607Z,6.63
2019-05-18T22:18:53.959Z,6.47
2019-05-18T22:21:22.291Z,7.17
2019-05-18T22:23:50.650Z,7.27
2019-05-18T22:26:18.983Z,6.30
2019-05-18T22:28:47.338Z,5.43
2019-05-18T22:31:15.680Z,5.53
2019-05-18T22:33:52.698Z,5.00
2019-05-18T22:36:23.953Z,5.10
2019-05-18T22:38:52.360Z,5.50
2019-05-18T22:41:20.670Z,5.50
2019-05-18T22:43:49.001Z,5.60
2019-05-18T22:46:17.333Z,5.50
2019-05-18T22:48:45.673Z,5.30
2019-05-18T22:51:14.013Z,5.75
2019-05-18T22:53:42.353Z,6.17
2019-05-18T22:56:10.692Z,6.28
2019-05-18T22:58:39.055Z,6.10
2019-05-18T23:01:07.360Z,5.67
2019-05-18T23:03:35.753Z,6.40
2019-05-18T23:06:04.089Z,5.43
2019-05-18T23:08:32.435Z,5.63
2019-05-18T23:11:00.781Z,5.80
2019-05-18T23:13:29.120Z,5.97
2019-05-18T23:15:57.461Z,5.00
2019-05-18T23:18:28.968Z,5.87
2019-05-18T23:21:00.730Z,5.57
2019-05-18T23:23:29.076Z,5.40
2019-05-18T23:25:57.409Z,6.03
2019-05-18T23:28:26.663Z,6.05
2019-05-18T23:30:55.975Z,5.90
2019-05-18T23:33:30.860Z,5.77
2019-05-18T23:36:02.969Z,6.17
2019-05-18T23:38:34.734Z,6.28
2019-05-18T23:41:03.968Z,6.03
2019-05-18T23:43:35.560Z,6.60
2019-05-18T23:46:03.913Z,6.30
2019-05-18T23:48:34.152Z,5.70
2019-05-18T23:51:02.490Z,5.80
2019-05-18T23:53:37.592Z,6.13
2019-05-18T23:56:20.349Z,5.60
2019-05-18T23:58:51.616Z,5.83
